sensor_id;sensor_type;location;lat;lon;timestamp;temperature;humidity
5675;DHT22;2860;54.284;10.158;2023-04-12T00:02:10;1.50;99.90
5675;DHT22;2860;54.284;10.158;2023-04-12T00:04:36;1.50;99.90
5675;DHT22;2860;54.284;10.158;2023-04-12T00:07:02;1.50;99.90
5675;DHT22;2860;54.284;10.158;2023-04-12T00:09:28;1.40;99.90
5675;DHT22;2860;54.284;10.158;2023-04-12T00:11:57;1.40;99.90
5675;DHT22;2860;54.284;10.158;2023-04-12T00:14:26;1.40;99.90
5675;DHT22;2860;54.284;10.158;2023-04-12T00:16:52;1.40;99.90
5675;DHT22;2860;54.284;10.158;2023-04-12T00:19:17;1.40;99.90
5675;DHT22;2860;54.284;10.158;2023-04-12T00:21:43;1.40;99.90
5675;DHT22;2860;54.284;10.158;2023-04-12T00:24:09;1.30;99.90
5675;DHT22;2860;54.284;10.158;2023-04-12T00:26:34;1.30;99.90
5675;DHT22;2860;54.284;10.158;2023-04-12T00:29:00;1.30;99.90
5675;DHT22;2860;54.284;10.158;2023-04-12T00:31:26;1.30;99.90
5675;DHT22;2860;54.284;10.158;2023-04-12T00:33:51;1.30;99.90
5675;DHT22;2860;54.284;10.158;2023-04-12T00:36:17;1.30;99.90
5675;DHT22;2860;54.284;10.158;2023-04-12T00:38:43;1.20;99.90
5675;DHT22;2860;54.284;10.158;2023-04-12T00:41:10;1.20;99.90
5675;DHT22;2860;54.284;10.158;2023-04-12T00:43:36;1.20;99.90
5675;DHT22;2860;54.284;10.158;2023-04-12T00:46:02;1.20;99.90
5675;DHT22;2860;54.284;10.158;2023-04-12T00:48:28;1.20;99.90
5675;DHT22;2860;54.284;10.158;2023-04-12T00:50:53;1.20;99.90
5675;DHT22;2860;54.284;10.158;2023-04-12T00:53:22;1.20;99.90
5675;DHT22;2860;54.284;10.158;2023-04-12T00:55:49;1.10;99.90
5675;DHT22;2860;54.284;10.158;2023-04-12T00:58:16;1.10;99.90
5675;DHT22;2860;54.284;10.158;2023-04-12T01:00:42;1.10;99.90
5675;DHT22;2860;54.284;10.158;2023-04-12T01:03:16;1.00;99.90
5675;DHT22;2860;54.284;10.158;2023-04-12T01:06:19;1.00;99.90
5675;DHT22;2860;54.284;10.158;2023-04-12T01:11:30;1.00;99.90
5675;DHT22;2860;54.284;10.158;2023-04-12T01:14:28;1.00;99.90
5675;DHT22;2860;54.284;10.158;2023-04-12T01:16:57;0.90;99.90
5675;DHT22;2860;54.284;10.158;2023-04-12T01:25:34;0.80;99.90
5675;DHT22;2860;54.284;10.158;2023-04-12T01:28:04;0.80;99.90
5675;DHT22;2860;54.284;10.158;2023-04-12T01:30:31;0.80;99.90
5675;DHT22;2860;54.284;10.158;2023-04-12T01:32:59;0.80;99.90
5675;DHT22;2860;54.284;10.158;2023-04-12T01:35:29;0.80;99.90
5675;DHT22;2860;54.284;10.158;2023-04-12T01:37:56;0.90;99.90
5675;DHT22;2860;54.284;10.158;2023-04-12T01:40:25;0.90;99.90
5675;DHT22;2860;54.284;10.158;2023-04-12T01:43:03;0.90;99.90
5675;DHT22;2860;54.284;10.158;2023-04-12T01:45:29;1.00;99.90
5675;DHT22;2860;54.284;10.158;2023-04-12T01:47:55;1.00;99.90
5675;DHT22;2860;54.284;10.158;2023-04-12T01:50:32;1.00;99.90
5675;DHT22;2860;54.284;10.158;2023-04-12T01:55:43;1.10;99.90
5675;DHT22;2860;54.284;10.158;2023-04-12T01:58:14;1.10;99.90
5675;DHT22;2860;54.284;10.158;2023-04-12T02:00:43;1.10;99.90
5675;DHT22;2860;54.284;10.158;2023-04-12T02:03:09;1.10;99.90
5675;DHT22;2860;54.284;10.158;2023-04-12T02:05:36;1.20;99.90
5675;DHT22;2860;54.284;10.158;2023-04-12T02:08:02;1.20;99.90
5675;DHT22;2860;54.284;10.158;2023-04-12T02:10:30;1.30;99.90
5675;DHT22;2860;54.284;10.158;2023-04-12T02:12:59;1.30;99.90
5675;DHT22;2860;54.284;10.158;2023-04-12T02:15:26;1.40;99.90
5675;DHT22;2860;54.284;10.158;2023-04-12T02:17:52;1.40;99.90
5675;DHT22;2860;54.284;10.158;2023-04-12T02:20:22;1.50;99.90
5675;DHT22;2860;54.284;10.158;2023-04-12T02:22:48;1.50;99.90
5675;DHT22;2860;54.284;10.158;2023-04-12T02:25:14;1.60;99.90
5675;DHT22;2860;54.284;10.158;2023-04-12T02:27:43;1.50;99.90
5675;DHT22;2860;54.284;10.158;2023-04-12T02:30:08;1.60;99.90
5675;DHT22;2860;54.284;10.158;2023-04-12T02:32:34;1.60;99.90
5675;DHT22;2860;54.284;10.158;2023-04-12T02:35:11;1.60;99.90
5675;DHT22;2860;54.284;10.158;2023-04-12T02:37:38;1.60;99.90
5675;DHT22;2860;54.284;10.158;2023-04-12T02:40:04;1.60;99.90
5675;DHT22;2860;54.284;10.158;2023-04-12T02:42:34;1.60;99.90
5675;DHT22;2860;54.284;10.158;2023-04-12T02:45:00;1.60;99.90
5675;DHT22;2860;54.284;10.158;2023-04-12T02:47:26;1.70;99.90
5675;DHT22;2860;54.284;10.158;2023-04-12T02:49:53;1.70;99.90
5675;DHT22;2860;54.284;10.158;2023-04-12T02:52:19;1.70;99.90
5675;DHT22;2860;54.284;10.158;2023-04-12T02:54:45;1.70;99.90
5675;DHT22;2860;54.284;10.158;2023-04-12T02:57:11;1.70;99.90
5675;DHT22;2860;54.284;10.158;2023-04-12T02:59:37;1.70;99.90
5675;DHT22;2860;54.284;10.158;2023-04-12T03:02:03;1.70;99.90
5675;DHT22;2860;54.284;10.158;2023-04-12T03:04:28;1.70;99.90
5675;DHT22;2860;54.284;10.158;2023-04-12T03:06:57;1.70;99.90
5675;DHT22;2860;54.284;10.158;2023-04-12T03:09:22;1.70;99.90
5675;DHT22;2860;54.284;10.158;2023-04-12T03:11:48;1.70;99.90
5675;DHT22;2860;54.284;10.158;2023-04-12T03:14:13;1.70;99.90
5675;DHT22;2860;54.284;10.158;2023-04-12T03:16:39;1.80;99.90
5675;DHT22;2860;54.284;10.158;2023-04-12T03:19:05;1.80;99.90
5675;DHT22;2860;54.284;10.158;2023-04-12T03:21:31;1.80;99.90
5675;DHT22;2860;54.284;10.158;2023-04-12T03:23:58;1.80;99.90
5675;DHT22;2860;54.284;10.158;2023-04-12T03:26:23;1.80;99.90
5675;DHT22;2860;54.284;10.158;2023-04-12T03:28:53;1.80;99.90
5675;DHT22;2860;54.284;10.158;2023-04-12T03:31:18;1.90;99.90
5675;DHT22;2860;54.284;10.158;2023-04-12T03:33:45;1.90;99.90
5675;DHT22;2860;54.284;10.158;2023-04-12T03:36:11;2.00;99.90
5675;DHT22;2860;54.284;10.158;2023-04-12T03:38:36;2.00;99.90
5675;DHT22;2860;54.284;10.158;2023-04-12T03:41:02;2.10;99.90
5675;DHT22;2860;54.284;10.158;2023-04-12T03:43:27;2.10;99.90
5675;DHT22;2860;54.284;10.158;2023-04-12T03:46:00;2.10;99.90
5675;DHT22;2860;54.284;10.158;2023-04-12T03:48:26;2.00;99.90
5675;DHT22;2860;54.284;10.158;2023-04-12T03:50:51;2.10;99.90
5675;DHT22;2860;54.284;10.158;2023-04-12T03:53:19;2.10;99.90
5675;DHT22;2860;54.284;10.158;2023-04-12T03:55:45;2.10;99.90
5675;DHT22;2860;54.284;10.158;2023-04-12T03:58:11;2.10;99.90
5675;DHT22;2860;54.284;10.158;2023-04-12T04:00:38;2.10;99.90
5675;DHT22;2860;54.284;10.158;2023-04-12T04:03:03;2.10;99.90
5675;DHT22;2860;54.284;10.158;2023-04-12T04:05:29;2.20;99.90
5675;DHT22;2860;54.284;10.158;2023-04-12T04:07:56;2.30;99.90
5675;DHT22;2860;54.284;10.158;2023-04-12T04:10:26;2.40;99.90
5675;DHT22;2860;54.284;10.158;2023-04-12T04:12:52;2.50;99.90
5675;DHT22;2860;54.284;10.158;2023-04-12T04:15:17;2.60;99.90
5675;DHT22;2860;54.284;10.158;2023-04-12T04:17:43;2.60;99.90
5675;DHT22;2860;54.284;10.158;2023-04-12T04:20:10;2.60;99.90
5675;DHT22;2860;54.284;10.158;2023-04-12T04:22:37;2.60;99.90
5675;DHT22;2860;54.284;10.158;2023-04-12T04:25:03;2.60;99.90
5675;DHT22;2860;54.284;10.158;2023-04-12T04:27:30;2.40;99.90
5675;DHT22;2860;54.284;10.158;2023-04-12T04:29:58;2.40;99.90
5675;DHT22;2860;54.284;10.158;2023-04-12T04:32:30;2.30;99.90
5675;DHT22;2860;54.284;10.158;2023-04-12T04:34:57;2.40;99.90
5675;DHT22;2860;54.284;10.158;2023-04-12T04:37:27;2.40;99.90
5675;DHT22;2860;54.284;10.158;2023-04-12T04:39:53;2.50;99.90
5675;DHT22;2860;54.284;10.158;2023-04-12T04:42:18;2.60;99.90
5675;DHT22;2860;54.284;10.158;2023-04-12T04:44:44;2.70;99.90
5675;DHT22;2860;54.284;10.158;2023-04-12T04:47:09;2.70;99.90
5675;DHT22;2860;54.284;10.158;2023-04-12T04:49:36;2.70;99.90
5675;DHT22;2860;54.284;10.158;2023-04-12T04:52:02;2.80;99.90
5675;DHT22;2860;54.284;10.158;2023-04-12T04:54:28;2.80;99.90
5675;DHT22;2860;54.284;10.158;2023-04-12T04:56:54;2.90;99.90
5675;DHT22;2860;54.284;10.158;2023-04-12T04:59:20;3.00;99.90
5675;DHT22;2860;54.284;10.158;2023-04-12T05:01:46;3.00;99.90
5675;DHT22;2860;54.284;10.158;2023-04-12T05:04:11;3.10;99.90
5675;DHT22;2860;54.284;10.158;2023-04-12T05:06:37;3.20;99.90
5675;DHT22;2860;54.284;10.158;2023-04-12T05:09:02;3.20;99.90
5675;DHT22;2860;54.284;10.158;2023-04-12T05:11:29;3.20;99.90
5675;DHT22;2860;54.284;10.158;2023-04-12T05:13:55;3.20;99.90
5675;DHT22;2860;54.284;10.158;2023-04-12T05:16:20;3.20;99.90
5675;DHT22;2860;54.284;10.158;2023-04-12T05:18:46;3.20;99.90
5675;DHT22;2860;54.284;10.158;2023-04-12T05:21:11;3.20;99.90
5675;DHT22;2860;54.284;10.158;2023-04-12T05:23:41;3.20;99.90
5675;DHT22;2860;54.284;10.158;2023-04-12T05:26:07;3.20;99.90
5675;DHT22;2860;54.284;10.158;2023-04-12T05:28:33;3.20;99.90
5675;DHT22;2860;54.284;10.158;2023-04-12T05:30:58;3.30;99.90
5675;DHT22;2860;54.284;10.158;2023-04-12T05:33:24;3.30;99.90
5675;DHT22;2860;54.284;10.158;2023-04-12T05:35:49;3.30;99.90
5675;DHT22;2860;54.284;10.158;2023-04-12T05:38:15;3.40;99.90
5675;DHT22;2860;54.284;10.158;2023-04-12T05:40:41;3.50;99.90
5675;DHT22;2860;54.284;10.158;2023-04-12T05:43:08;3.80;99.90
5675;DHT22;2860;54.284;10.158;2023-04-12T05:45:37;3.90;99.90
5675;DHT22;2860;54.284;10.158;2023-04-12T05:48:03;4.10;99.90
5675;DHT22;2860;54.284;10.158;2023-04-12T05:50:29;4.40;99.90
5675;DHT22;2860;54.284;10.158;2023-04-12T05:52:54;4.60;99.90
5675;DHT22;2860;54.284;10.158;2023-04-12T05:55:20;4.80;99.90
5675;DHT22;2860;54.284;10.158;2023-04-12T05:57:46;4.80;99.90
5675;DHT22;2860;54.284;10.158;2023-04-12T06:00:12;4.60;99.90
5675;DHT22;2860;54.284;10.158;2023-04-12T06:02:42;4.50;99.90
5675;DHT22;2860;54.284;10.158;2023-04-12T06:05:07;4.60;99.90
5675;DHT22;2860;54.284;10.158;2023-04-12T06:07:33;4.70;99.90
5675;DHT22;2860;54.284;10.158;2023-04-12T06:09:59;4.90;99.90
5675;DHT22;2860;54.284;10.158;2023-04-12T06:12:25;5.00;99.90
5675;DHT22;2860;54.284;10.158;2023-04-12T06:14:51;5.10;99.90
5675;DHT22;2860;54.284;10.158;2023-04-12T06:17:16;5.10;99.90
5675;DHT22;2860;54.284;10.158;2023-04-12T06:19:42;5.20;99.90
5675;DHT22;2860;54.284;10.158;2023-04-12T06:22:07;5.30;99.90
5675;DHT22;2860;54.284;10.158;2023-04-12T06:24:33;5.40;99.90
5675;DHT22;2860;54.284;10.158;2023-04-12T06:26:58;5.60;99.90
5675;DHT22;2860;54.284;10.158;2023-04-12T06:29:24;5.70;99.90
5675;DHT22;2860;54.284;10.158;2023-04-12T06:31:50;5.80;99.90
5675;DHT22;2860;54.284;10.158;2023-04-12T06:34:15;6.00;99.90
5675;DHT22;2860;54.284;10.158;2023-04-12T06:36:41;6.10;99.90
5675;DHT22;2860;54.284;10.158;2023-04-12T06:39:08;6.30;99.90
5675;DHT22;2860;54.284;10.158;2023-04-12T06:41:36;6.40;99.90
5675;DHT22;2860;54.284;10.158;2023-04-12T06:44:01;6.50;99.90
5675;DHT22;2860;54.284;10.158;2023-04-12T06:46:27;6.60;99.90
5675;DHT22;2860;54.284;10.158;2023-04-12T06:48:53;6.70;99.90
5675;DHT22;2860;54.284;10.158;2023-04-12T06:51:18;6.80;99.90
5675;DHT22;2860;54.284;10.158;2023-04-12T06:53:44;7.00;99.90
5675;DHT22;2860;54.284;10.158;2023-04-12T06:56:10;7.10;99.90
5675;DHT22;2860;54.284;10.158;2023-04-12T06:58:35;7.20;99.90
5675;DHT22;2860;54.284;10.158;2023-04-12T07:01:07;7.40;99.90
5675;DHT22;2860;54.284;10.158;2023-04-12T07:03:34;7.50;99.90
5675;DHT22;2860;54.284;10.158;2023-04-12T07:06:00;7.70;99.90
5675;DHT22;2860;54.284;10.158;2023-04-12T07:08:27;7.80;99.90
5675;DHT22;2860;54.284;10.158;2023-04-12T07:10:54;8.00;99.90
5675;DHT22;2860;54.284;10.158;2023-04-12T07:13:19;8.10;99.90
5675;DHT22;2860;54.284;10.158;2023-04-12T07:15:45;8.30;99.90
5675;DHT22;2860;54.284;10.158;2023-04-12T07:18:11;8.30;99.90
5675;DHT22;2860;54.284;10.158;2023-04-12T07:20:37;8.40;99.90
5675;DHT22;2860;54.284;10.158;2023-04-12T07:23:02;8.40;99.90
5675;DHT22;2860;54.284;10.158;2023-04-12T07:25:28;8.50;99.90
5675;DHT22;2860;54.284;10.158;2023-04-12T07:27:53;8.70;99.90
5675;DHT22;2860;54.284;10.158;2023-04-12T07:30:19;8.90;99.90
5675;DHT22;2860;54.284;10.158;2023-04-12T07:32:47;9.00;99.90
5675;DHT22;2860;54.284;10.158;2023-04-12T07:35:13;9.20;99.90
5675;DHT22;2860;54.284;10.158;2023-04-12T07:37:38;9.40;99.90
5675;DHT22;2860;54.284;10.158;2023-04-12T07:40:05;9.60;99.90
5675;DHT22;2860;54.284;10.158;2023-04-12T07:42:30;9.70;99.90
5675;DHT22;2860;54.284;10.158;2023-04-12T07:44:56;9.90;99.90
5675;DHT22;2860;54.284;10.158;2023-04-12T07:47:22;10.00;99.90
5675;DHT22;2860;54.284;10.158;2023-04-12T07:49:47;10.20;99.90
5675;DHT22;2860;54.284;10.158;2023-04-12T07:52:13;10.30;99.90
5675;DHT22;2860;54.284;10.158;2023-04-12T07:54:39;10.40;99.90
5675;DHT22;2860;54.284;10.158;2023-04-12T07:57:04;10.40;99.90
5675;DHT22;2860;54.284;10.158;2023-04-12T07:59:30;10.40;99.90
5675;DHT22;2860;54.284;10.158;2023-04-12T08:01:56;10.60;99.90
5675;DHT22;2860;54.284;10.158;2023-04-12T08:04:22;10.70;99.90
5675;DHT22;2860;54.284;10.158;2023-04-12T08:06:47;10.70;99.90
5675;DHT22;2860;54.284;10.158;2023-04-12T08:09:13;10.80;99.90
5675;DHT22;2860;54.284;10.158;2023-04-12T08:11:38;11.00;99.90
5675;DHT22;2860;54.284;10.158;2023-04-12T08:14:04;11.10;99.90
5675;DHT22;2860;54.284;10.158;2023-04-12T08:16:29;11.30;99.90
5675;DHT22;2860;54.284;10.158;2023-04-12T08:18:56;11.30;99.90
5675;DHT22;2860;54.284;10.158;2023-04-12T08:21:22;11.30;99.90
5675;DHT22;2860;54.284;10.158;2023-04-12T08:23:47;11.30;99.90
5675;DHT22;2860;54.284;10.158;2023-04-12T08:26:15;11.30;99.90
5675;DHT22;2860;54.284;10.158;2023-04-12T08:28:41;11.50;99.90
5675;DHT22;2860;54.284;10.158;2023-04-12T08:31:07;11.70;99.90
5675;DHT22;2860;54.284;10.158;2023-04-12T08:33:33;11.90;99.90
5675;DHT22;2860;54.284;10.158;2023-04-12T08:35:58;12.20;99.90
5675;DHT22;2860;54.284;10.158;2023-04-12T08:38:24;12.20;99.90
5675;DHT22;2860;54.284;10.158;2023-04-12T08:40:50;12.20;99.90
5675;DHT22;2860;54.284;10.158;2023-04-12T08:43:17;12.10;99.90
5675;DHT22;2860;54.284;10.158;2023-04-12T08:45:43;12.10;99.90
5675;DHT22;2860;54.284;10.158;2023-04-12T08:48:09;12.10;99.90
5675;DHT22;2860;54.284;10.158;2023-04-12T08:50:35;12.10;99.90
5675;DHT22;2860;54.284;10.158;2023-04-12T08:53:01;11.90;99.90
5675;DHT22;2860;54.284;10.158;2023-04-12T08:55:27;12.10;99.90
5675;DHT22;2860;54.284;10.158;2023-04-12T08:57:53;12.20;99.90
5675;DHT22;2860;54.284;10.158;2023-04-12T09:00:21;12.20;99.90
5675;DHT22;2860;54.284;10.158;2023-04-12T09:02:46;12.20;99.90
5675;DHT22;2860;54.284;10.158;2023-04-12T09:05:13;12.30;99.90
5675;DHT22;2860;54.284;10.158;2023-04-12T09:07:40;12.40;99.90
5675;DHT22;2860;54.284;10.158;2023-04-12T09:10:06;12.30;99.90
5675;DHT22;2860;54.284;10.158;2023-04-12T09:12:32;12.40;99.90
5675;DHT22;2860;54.284;10.158;2023-04-12T09:15:06;12.50;99.90
5675;DHT22;2860;54.284;10.158;2023-04-12T09:17:36;12.60;99.90
5675;DHT22;2860;54.284;10.158;2023-04-12T09:20:21;12.70;99.90
5675;DHT22;2860;54.284;10.158;2023-04-12T09:22:49;12.70;99.90
5675;DHT22;2860;54.284;10.158;2023-04-12T09:25:15;12.70;99.90
5675;DHT22;2860;54.284;10.158;2023-04-12T09:27:51;12.70;99.90
5675;DHT22;2860;54.284;10.158;2023-04-12T09:30:18;12.50;99.90
5675;DHT22;2860;54.284;10.158;2023-04-12T09:32:44;12.30;99.90
5675;DHT22;2860;54.284;10.158;2023-04-12T09:35:09;12.20;99.90
5675;DHT22;2860;54.284;10.158;2023-04-12T09:37:35;12.00;99.90
5675;DHT22;2860;54.284;10.158;2023-04-12T09:40:08;11.90;99.90
5675;DHT22;2860;54.284;10.158;2023-04-12T09:42:35;11.90;99.90
5675;DHT22;2860;54.284;10.158;2023-04-12T09:45:32;11.70;99.90
5675;DHT22;2860;54.284;10.158;2023-04-12T09:47:58;11.60;99.90
5675;DHT22;2860;54.284;10.158;2023-04-12T09:50:27;11.60;99.90
5675;DHT22;2860;54.284;10.158;2023-04-12T09:52:57;11.70;99.90
5675;DHT22;2860;54.284;10.158;2023-04-12T09:55:24;11.70;99.90
5675;DHT22;2860;54.284;10.158;2023-04-12T09:57:52;11.80;99.90
5675;DHT22;2860;54.284;10.158;2023-04-12T10:00:18;11.80;99.90
5675;DHT22;2860;54.284;10.158;2023-04-12T10:02:50;11.70;99.90
5675;DHT22;2860;54.284;10.158;2023-04-12T10:05:18;11.60;99.90
5675;DHT22;2860;54.284;10.158;2023-04-12T10:07:45;11.60;99.90
5675;DHT22;2860;54.284;10.158;2023-04-12T10:10:12;11.60;99.90
5675;DHT22;2860;54.284;10.158;2023-04-12T10:12:39;11.60;99.90
5675;DHT22;2860;54.284;10.158;2023-04-12T10:15:07;11.60;99.90
5675;DHT22;2860;54.284;10.158;2023-04-12T10:17:42;11.60;99.90
5675;DHT22;2860;54.284;10.158;2023-04-12T10:20:10;11.60;99.90
5675;DHT22;2860;54.284;10.158;2023-04-12T10:22:47;11.70;99.90
5675;DHT22;2860;54.284;10.158;2023-04-12T10:25:16;11.80;99.90
5675;DHT22;2860;54.284;10.158;2023-04-12T10:27:43;12.10;99.90
5675;DHT22;2860;54.284;10.158;2023-04-12T10:30:30;12.60;99.90
5675;DHT22;2860;54.284;10.158;2023-04-12T10:35:28;13.00;99.90
5675;DHT22;2860;54.284;10.158;2023-04-12T10:38:01;13.00;99.90
5675;DHT22;2860;54.284;10.158;2023-04-12T10:40:27;13.00;99.90
5675;DHT22;2860;54.284;10.158;2023-04-12T10:45:43;13.00;99.90
5675;DHT22;2860;54.284;10.158;2023-04-12T10:53:40;13.30;99.90
5675;DHT22;2860;54.284;10.158;2023-04-12T10:59:06;13.20;99.90
5675;DHT22;2860;54.284;10.158;2023-04-12T11:01:32;13.00;99.90
5675;DHT22;2860;54.284;10.158;2023-04-12T11:04:19;12.90;99.90
5675;DHT22;2860;54.284;10.158;2023-04-12T11:12:11;12.50;99.90
5675;DHT22;2860;54.284;10.158;2023-04-12T11:14:50;12.30;99.90
5675;DHT22;2860;54.284;10.158;2023-04-12T11:22:15;12.20;99.90
5675;DHT22;2860;54.284;10.158;2023-04-12T11:25:00;12.40;99.90
5675;DHT22;2860;54.284;10.158;2023-04-12T11:27:27;12.60;99.90
5675;DHT22;2860;54.284;10.158;2023-04-12T11:29:54;12.90;99.90
5675;DHT22;2860;54.284;10.158;2023-04-12T11:32:27;13.10;99.90
5675;DHT22;2860;54.284;10.158;2023-04-12T11:34:55;13.10;99.90
5675;DHT22;2860;54.284;10.158;2023-04-12T11:37:21;13.00;99.90
5675;DHT22;2860;54.284;10.158;2023-04-12T11:39:50;12.90;99.90
5675;DHT22;2860;54.284;10.158;2023-04-12T11:42:19;12.70;99.90
5675;DHT22;2860;54.284;10.158;2023-04-12T11:44:46;12.50;99.90
5675;DHT22;2860;54.284;10.158;2023-04-12T11:47:19;12.40;99.90
5675;DHT22;2860;54.284;10.158;2023-04-12T11:49:50;12.30;99.90
5675;DHT22;2860;54.284;10.158;2023-04-12T11:52:17;12.20;99.90
5675;DHT22;2860;54.284;10.158;2023-04-12T11:54:44;12.00;99.90
5675;DHT22;2860;54.284;10.158;2023-04-12T11:57:11;11.90;99.90
5675;DHT22;2860;54.284;10.158;2023-04-12T11:59:37;11.80;99.90
5675;DHT22;2860;54.284;10.158;2023-04-12T12:02:03;11.70;99.90
5675;DHT22;2860;54.284;10.158;2023-04-12T12:04:29;11.60;99.90
5675;DHT22;2860;54.284;10.158;2023-04-12T12:06:58;11.40;99.90
5675;DHT22;2860;54.284;10.158;2023-04-12T12:09:25;11.30;99.90
5675;DHT22;2860;54.284;10.158;2023-04-12T12:11:51;11.20;99.90
5675;DHT22;2860;54.284;10.158;2023-04-12T12:14:21;11.10;99.90
5675;DHT22;2860;54.284;10.158;2023-04-12T12:16:54;11.10;99.90
5675;DHT22;2860;54.284;10.158;2023-04-12T12:19:34;11.00;99.90
5675;DHT22;2860;54.284;10.158;2023-04-12T12:22:20;11.00;99.90
5675;DHT22;2860;54.284;10.158;2023-04-12T12:24:59;10.90;99.90
5675;DHT22;2860;54.284;10.158;2023-04-12T12:27:36;10.90;99.90
5675;DHT22;2860;54.284;10.158;2023-04-12T12:30:03;10.90;99.90
5675;DHT22;2860;54.284;10.158;2023-04-12T12:32:37;10.80;99.90
5675;DHT22;2860;54.284;10.158;2023-04-12T12:35:11;10.70;99.90
5675;DHT22;2860;54.284;10.158;2023-04-12T12:37:37;10.60;99.90
5675;DHT22;2860;54.284;10.158;2023-04-12T12:40:12;10.50;99.90
5675;DHT22;2860;54.284;10.158;2023-04-12T12:42:44;10.40;99.90
5675;DHT22;2860;54.284;10.158;2023-04-12T12:45:11;10.30;99.90
5675;DHT22;2860;54.284;10.158;2023-04-12T12:47:47;10.30;99.90
5675;DHT22;2860;54.284;10.158;2023-04-12T12:50:14;10.20;99.90
5675;DHT22;2860;54.284;10.158;2023-04-12T12:52:42;10.10;99.90
5675;DHT22;2860;54.284;10.158;2023-04-12T12:55:12;10.00;99.90
5675;DHT22;2860;54.284;10.158;2023-04-12T12:57:57;10.00;99.90
5675;DHT22;2860;54.284;10.158;2023-04-12T13:00:24;10.00;99.90
5675;DHT22;2860;54.284;10.158;2023-04-12T13:02:50;9.90;99.90
5675;DHT22;2860;54.284;10.158;2023-04-12T13:05:17;9.80;99.90
5675;DHT22;2860;54.284;10.158;2023-04-12T13:07:43;9.80;99.90
5675;DHT22;2860;54.284;10.158;2023-04-12T13:10:09;9.70;99.90
5675;DHT22;2860;54.284;10.158;2023-04-12T13:12:35;9.70;99.90
5675;DHT22;2860;54.284;10.158;2023-04-12T13:15:00;9.70;99.90
5675;DHT22;2860;54.284;10.158;2023-04-12T13:17:27;9.60;99.90
5675;DHT22;2860;54.284;10.158;2023-04-12T13:19:53;9.50;99.90
5675;DHT22;2860;54.284;10.158;2023-04-12T13:22:18;9.50;99.90
5675;DHT22;2860;54.284;10.158;2023-04-12T13:24:44;9.50;99.90
5675;DHT22;2860;54.284;10.158;2023-04-12T13:27:11;9.60;99.90
5675;DHT22;2860;54.284;10.158;2023-04-12T13:29:37;9.60;99.90
5675;DHT22;2860;54.284;10.158;2023-04-12T13:32:03;9.70;99.90
5675;DHT22;2860;54.284;10.158;2023-04-12T13:34:29;9.70;99.90
5675;DHT22;2860;54.284;10.158;2023-04-12T13:36:55;9.80;99.90
5675;DHT22;2860;54.284;10.158;2023-04-12T13:39:20;9.60;99.90
5675;DHT22;2860;54.284;10.158;2023-04-12T13:41:46;9.50;99.90
5675;DHT22;2860;54.284;10.158;2023-04-12T13:44:11;9.50;99.90
5675;DHT22;2860;54.284;10.158;2023-04-12T13:46:37;9.50;99.90
5675;DHT22;2860;54.284;10.158;2023-04-12T13:49:02;9.40;99.90
5675;DHT22;2860;54.284;10.158;2023-04-12T13:51:28;9.40;99.90
5675;DHT22;2860;54.284;10.158;2023-04-12T13:53:54;9.40;99.90
5675;DHT22;2860;54.284;10.158;2023-04-12T13:56:20;9.40;99.90
5675;DHT22;2860;54.284;10.158;2023-04-12T13:58:46;9.40;99.90
5675;DHT22;2860;54.284;10.158;2023-04-12T14:01:12;9.40;99.90
5675;DHT22;2860;54.284;10.158;2023-04-12T14:03:38;9.40;99.90
5675;DHT22;2860;54.284;10.158;2023-04-12T14:06:04;9.50;99.90
5675;DHT22;2860;54.284;10.158;2023-04-12T14:08:30;9.40;99.90
5675;DHT22;2860;54.284;10.158;2023-04-12T14:10:55;9.40;99.90
5675;DHT22;2860;54.284;10.158;2023-04-12T14:13:22;9.30;99.90
5675;DHT22;2860;54.284;10.158;2023-04-12T14:15:49;9.40;99.90
5675;DHT22;2860;54.284;10.158;2023-04-12T14:18:15;9.40;99.90
5675;DHT22;2860;54.284;10.158;2023-04-12T14:20:41;9.30;99.90
5675;DHT22;2860;54.284;10.158;2023-04-12T14:23:07;9.30;99.90
5675;DHT22;2860;54.284;10.158;2023-04-12T14:25:35;9.30;99.90
5675;DHT22;2860;54.284;10.158;2023-04-12T14:28:01;9.40;99.90
5675;DHT22;2860;54.284;10.158;2023-04-12T14:30:27;9.40;99.90
5675;DHT22;2860;54.284;10.158;2023-04-12T14:32:52;9.40;99.90
5675;DHT22;2860;54.284;10.158;2023-04-12T14:35:18;9.40;99.90
5675;DHT22;2860;54.284;10.158;2023-04-12T14:37:44;9.40;99.90
5675;DHT22;2860;54.284;10.158;2023-04-12T14:40:09;9.40;99.90
5675;DHT22;2860;54.284;10.158;2023-04-12T14:42:35;9.30;99.90
5675;DHT22;2860;54.284;10.158;2023-04-12T14:45:01;9.30;99.90
5675;DHT22;2860;54.284;10.158;2023-04-12T14:47:29;9.30;99.90
5675;DHT22;2860;54.284;10.158;2023-04-12T14:49:55;9.20;99.90
5675;DHT22;2860;54.284;10.158;2023-04-12T14:52:20;9.20;99.90
5675;DHT22;2860;54.284;10.158;2023-04-12T14:54:46;9.20;99.90
5675;DHT22;2860;54.284;10.158;2023-04-12T14:57:11;9.20;99.90
5675;DHT22;2860;54.284;10.158;2023-04-12T14:59:37;9.10;99.90
5675;DHT22;2860;54.284;10.158;2023-04-12T15:02:02;9.10;99.90
5675;DHT22;2860;54.284;10.158;2023-04-12T15:04:28;9.10;99.90
5675;DHT22;2860;54.284;10.158;2023-04-12T15:06:54;9.00;99.90
5675;DHT22;2860;54.284;10.158;2023-04-12T15:09:19;9.10;99.90
5675;DHT22;2860;54.284;10.158;2023-04-12T15:11:49;9.10;99.90
5675;DHT22;2860;54.284;10.158;2023-04-12T15:14:15;9.00;99.90
5675;DHT22;2860;54.284;10.158;2023-04-12T15:16:43;9.00;99.90
5675;DHT22;2860;54.284;10.158;2023-04-12T15:19:11;9.00;99.90
5675;DHT22;2860;54.284;10.158;2023-04-12T15:21:36;9.00;99.90
5675;DHT22;2860;54.284;10.158;2023-04-12T15:24:02;9.00;99.90
5675;DHT22;2860;54.284;10.158;2023-04-12T15:26:27;9.00;99.90
5675;DHT22;2860;54.284;10.158;2023-04-12T15:28:53;9.00;99.90
5675;DHT22;2860;54.284;10.158;2023-04-12T15:31:18;8.90;99.90
5675;DHT22;2860;54.284;10.158;2023-04-12T15:33:44;8.90;99.90
5675;DHT22;2860;54.284;10.158;2023-04-12T15:36:11;8.90;99.90
5675;DHT22;2860;54.284;10.158;2023-04-12T15:38:41;8.90;99.90
5675;DHT22;2860;54.284;10.158;2023-04-12T15:41:07;8.90;99.90
5675;DHT22;2860;54.284;10.158;2023-04-12T15:43:32;8.80;99.90
5675;DHT22;2860;54.284;10.158;2023-04-12T15:45:58;8.80;99.90
5675;DHT22;2860;54.284;10.158;2023-04-12T15:48:24;8.80;99.90
5675;DHT22;2860;54.284;10.158;2023-04-12T15:50:50;8.70;99.90
5675;DHT22;2860;54.284;10.158;2023-04-12T15:53:19;8.70;99.90
5675;DHT22;2860;54.284;10.158;2023-04-12T15:55:45;8.70;99.90
5675;DHT22;2860;54.284;10.158;2023-04-12T15:58:11;8.70;99.90
5675;DHT22;2860;54.284;10.158;2023-04-12T16:00:38;8.70;99.90
5675;DHT22;2860;54.284;10.158;2023-04-12T16:03:03;8.70;99.90
5675;DHT22;2860;54.284;10.158;2023-04-12T16:05:30;8.60;99.90
5675;DHT22;2860;54.284;10.158;2023-04-12T16:07:58;8.50;99.90
5675;DHT22;2860;54.284;10.158;2023-04-12T16:10:24;8.50;99.90
5675;DHT22;2860;54.284;10.158;2023-04-12T16:12:51;8.50;99.90
5675;DHT22;2860;54.284;10.158;2023-04-12T16:15:18;8.50;99.90
5675;DHT22;2860;54.284;10.158;2023-04-12T16:17:45;8.50;99.90
5675;DHT22;2860;54.284;10.158;2023-04-12T16:20:16;8.40;99.90
5675;DHT22;2860;54.284;10.158;2023-04-12T16:22:45;8.30;99.90
5675;DHT22;2860;54.284;10.158;2023-04-12T16:25:12;8.20;99.90
5675;DHT22;2860;54.284;10.158;2023-04-12T16:27:39;8.30;99.90
5675;DHT22;2860;54.284;10.158;2023-04-12T16:30:05;8.30;99.90
5675;DHT22;2860;54.284;10.158;2023-04-12T16:32:33;8.30;99.90
5675;DHT22;2860;54.284;10.158;2023-04-12T16:35:00;8.40;99.90